Time;durP1;ratioP1;P1;durP2;ratioP2;P2;SDS_P1;SDS_P2;PMS_P1;PMS_P2;Temp;Humidity;BMP_temperature;BMP_pressure;BME280_temperature;BME280_humidity;BME280_pressure;Samples;Min_cycle;Max_cycle;Signal;HPM_P1;HPM_P2
2022/01/31 04:02:42;;;;;;;16.20;3.47;;;6.00;99.90;;;;;;4954249;29;20062;-84
2022/01/31 04:05:09;;;;;;;24.42;5.05;;;6.00;99.90;;;;;;4938695;29;20494;-86
2022/01/31 04:07:35;;;;;;;19.58;4.25;;;5.90;99.90;;;;;;4938550;29;20043;-83
2022/01/31 04:10:02;;;;;;;24.42;5.40;;;5.90;99.90;;;;;;4938585;29;20175;-84
2022/01/31 04:12:28;;;;;;;19.63;4.00;;;6.00;99.90;;;;;;4922631;29;20043;-86
2022/01/31 04:14:53;;;;;;;22.73;3.35;;;6.00;99.90;;;;;;4938633;29;20407;-87
2022/01/31 04:17:20;;;;;;;27.75;4.78;;;6.00;99.90;;;;;;4955833;28;20039;-82
2022/01/31 04:19:47;;;;;;;18.10;3.85;;;6.00;99.90;;;;;;4938743;29;20102;-87
2022/01/31 04:22:16;;;;;;;27.52;4.78;;;6.00;99.90;;;;;;4938404;29;20046;-85
2022/01/31 04:24:42;;;;;;;21.90;3.60;;;5.80;99.90;;;;;;4938677;29;20485;-86
2022/01/31 04:27:15;;;;;;;28.20;4.10;;;5.80;99.90;;;;;;4955957;28;20095;-86
2022/01/31 04:29:43;;;;;;;23.73;4.47;;;5.90;99.90;;;;;;4922506;29;20068;-87
2022/01/31 04:32:08;;;;;;;23.98;2.92;;;5.90;99.90;;;;;;4938456;29;20051;-87
2022/01/31 04:34:34;;;;;;;23.77;3.58;;;5.80;99.90;;;;;;4938399;29;20046;-83
2022/01/31 04:37:00;;;;;;;16.17;3.60;;;5.80;99.90;;;;;;4938154;29;20082;-84
2022/01/31 04:39:28;;;;;;;19.88;3.60;;;5.80;99.90;;;;;;4938013;29;20051;-86
2022/01/31 04:41:54;;;;;;;22.45;3.30;;;5.70;99.90;;;;;;4922425;29;20052;-85
2022/01/31 04:44:19;;;;;;;21.98;3.65;;;5.70;99.90;;;;;;4955305;29;20051;-84
2022/01/31 04:46:49;;;;;;;32.45;4.53;;;5.70;99.90;;;;;;4937888;29;20043;-84
2022/01/31 04:49:15;;;;;;;23.30;3.53;;;5.60;99.90;;;;;;4937894;29;20101;-85
2022/01/31 04:51:41;;;;;;;24.88;4.38;;;5.60;99.90;;;;;;4955403;29;20058;-86
2022/01/31 04:54:06;;;;;;;24.35;3.53;;;5.60;99.90;;;;;;4937951;29;20047;-85
2022/01/31 04:56:32;;;;;;;24.40;4.05;;;5.60;99.90;;;;;;4937766;29;20043;-85
2022/01/31 04:58:58;;;;;;;24.42;4.95;;;5.60;99.90;;;;;;4937974;29;20046;-86
2022/01/31 05:01:24;;;;;;;17.63;4.00;;;5.60;99.90;;;;;;4937602;29;20047;-86
2022/01/31 05:03:50;;;;;;;29.73;3.72;;;5.60;99.90;;;;;;4938326;29;20043;-86
2022/01/31 05:06:19;;;;;;;12.65;1.90;;;5.70;99.90;;;;;;4955646;28;20054;-84
2022/01/31 05:08:44;;;;;;;17.15;2.45;;;5.60;99.90;;;;;;4937952;29;20122;-84
2022/01/31 05:11:12;;;;;;;15.05;1.60;;;5.40;99.90;;;;;;4937557;29;20127;-85
2022/01/31 05:13:38;;;;;;;6.63;1.10;;;5.10;99.90;;;;;;4955320;28;20125;-82
2022/01/31 05:16:04;;;;;;;10.45;1.00;;;4.80;99.90;;;;;;4937758;29;20089;-86
2022/01/31 05:18:30;;;;;;;3.60;0.70;;;4.60;99.90;;;;;;4937684;29;20032;-85
2022/01/31 05:20:56;;;;;;;4.07;0.63;;;4.50;99.90;;;;;;4937740;29;20053;-83
2022/01/31 05:23:21;;;;;;;5.70;0.93;;;4.50;99.90;;;;;;4938184;29;20428;-86
2022/01/31 05:25:47;;;;;;;7.30;0.80;;;4.50;99.90;;;;;;4955114;28;20039;-84
2022/01/31 05:28:13;;;;;;;8.55;1.38;;;4.50;99.90;;;;;;4937747;29;20495;-85
2022/01/31 05:30:39;;;;;;;11.52;1.80;;;4.50;99.90;;;;;;4937467;29;20090;-85
2022/01/31 05:33:04;;;;;;;10.43;1.63;;;4.50;99.90;;;;;;4937778;29;20093;-84
2022/01/31 05:35:31;;;;;;;9.80;1.70;;;4.50;99.90;;;;;;4921501;29;20046;-86
2022/01/31 05:37:57;;;;;;;15.85;2.28;;;4.60;99.90;;;;;;4954984;28;20039;-85
2022/01/31 05:40:23;;;;;;;12.27;1.75;;;4.60;99.90;;;;;;4921855;29;20502;-85
2022/01/31 05:42:48;;;;;;;21.35;3.28;;;4.60;99.90;;;;;;4937460;29;20490;-87
2022/01/31 05:45:14;;;;;;;16.15;2.20;;;4.70;99.90;;;;;;4937494;29;20043;-86
2022/01/31 05:47:40;;;;;;;13.18;2.55;;;4.60;99.90;;;;;;4954932;28;20043;-85
2022/01/31 05:50:06;;;;;;;23.30;2.63;;;4.70;99.90;;;;;;4954620;29;20055;-86
2022/01/31 05:52:33;;;;;;;29.48;3.00;;;4.70;99.90;;;;;;4937191;29;20112;-85
2022/01/31 05:54:59;;;;;;;18.05;3.67;;;4.70;99.90;;;;;;4937245;29;20039;-83
2022/01/31 05:57:24;;;;;;;20.23;2.85;;;4.70;99.90;;;;;;4937531;29;20368;-86
2022/01/31 05:59:51;;;;;;;23.80;2.53;;;4.80;99.90;;;;;;4937257;29;20050;-84
2022/01/31 06:02:17;;;;;;;21.30;2.53;;;4.80;99.90;;;;;;4937248;29;20094;-83
2022/01/31 06:04:43;;;;;;;15.45;2.90;;;4.80;99.90;;;;;;4940974;29;20051;-84
2022/01/31 06:07:08;;;;;;;23.73;2.92;;;4.90;99.90;;;;;;4940590;29;20046;-85
2022/01/31 06:09:36;;;;;;;40.85;3.47;;;4.90;99.90;;;;;;4958412;29;20083;-83
2022/01/31 06:12:03;;;;;;;19.15;2.25;;;4.90;99.90;;;;;;4940465;29;20517;-83
2022/01/31 06:14:29;;;;;;;19.73;3.38;;;5.00;99.90;;;;;;4940363;29;20035;-83
2022/01/31 06:16:55;;;;;;;25.67;3.10;;;5.00;99.90;;;;;;4940319;29;20091;-86
2022/01/31 06:19:20;;;;;;;22.17;4.05;;;5.10;99.90;;;;;;4940376;29;20448;-83
2022/01/31 06:21:46;;;;;;;21.95;3.53;;;5.00;99.90;;;;;;4940221;29;20043;-83
2022/01/31 06:24:14;;;;;;;24.05;3.30;;;5.10;99.90;;;;;;4940314;29;20043;-84
2022/01/31 06:26:40;;;;;;;22.77;3.67;;;5.10;99.90;;;;;;4940404;29;20051;-86
2022/01/31 06:29:06;;;;;;;23.85;2.90;;;5.10;99.90;;;;;;4939220;29;20431;-83
2022/01/31 06:31:33;;;;;;;15.55;2.38;;;5.10;99.90;;;;;;4939110;29;20043;-83
2022/01/31 06:34:00;;;;;;;15.90;2.60;;;5.10;99.90;;;;;;4939282;29;20047;-83
2022/01/31 06:36:26;;;;;;;18.33;2.17;;;5.20;99.90;;;;;;4939045;29;20103;-85
2022/01/31 06:38:53;;;;;;;19.65;2.35;;;5.10;99.90;;;;;;4939072;29;20054;-84
2022/01/31 06:41:19;;;;;;;15.30;1.85;;;5.10;99.90;;;;;;4939021;29;20047;-84
2022/01/31 06:43:46;;;;;;;16.30;2.22;;;5.10;99.90;;;;;;4939870;29;20500;-82
2022/01/31 06:46:13;;;;;;;8.25;1.52;;;5.00;99.90;;;;;;4939966;29;20039;-85
2022/01/31 06:48:39;;;;;;;10.68;2.33;;;5.00;99.90;;;;;;4940131;29;20130;-84
2022/01/31 06:51:05;;;;;;;14.27;2.15;;;4.90;99.90;;;;;;4939793;29;20137;-83
2022/01/31 06:53:31;;;;;;;13.10;2.25;;;4.90;99.90;;;;;;4939993;29;20054;-85
2022/01/31 06:55:57;;;;;;;11.45;1.80;;;4.90;99.90;;;;;;4939926;29;20074;-83
2022/01/31 06:58:23;;;;;;;833.40;46.78;;;4.90;99.90;;;;;;4939834;29;20066;-86
2022/01/31 07:00:49;;;;;;;19.92;2.75;;;4.90;99.90;;;;;;4939610;29;20083;-83
2022/01/31 07:03:15;;;;;;;25.00;4.50;;;4.80;99.90;;;;;;4939685;29;20075;-84
2022/01/31 07:05:44;;;;;;;75.80;5.47;;;4.90;99.90;;;;;;4939651;29;20047;-85
2022/01/31 07:08:11;;;;;;;772.67;37.28;;;4.90;99.90;;;;;;4939580;29;20043;-85
2022/01/31 07:10:38;;;;;;;29.65;4.22;;;5.00;99.90;;;;;;4957176;28;20170;-84
2022/01/31 07:13:13;;;;;;;193.70;16.30;;;5.00;99.90;;;;;;4939545;29;20058;-85
2022/01/31 07:15:39;;;;;;;13.77;2.42;;;5.10;99.90;;;;;;4939548;29;20142;-84
2022/01/31 07:18:05;;;;;;;617.65;29.42;;;5.10;99.90;;;;;;4923901;29;20395;-85
2022/01/31 07:20:39;;;;;;;925.85;46.58;;;5.10;99.90;;;;;;4938434;29;20046;-86
2022/01/31 07:23:15;;;;;;;857.87;30.87;;;5.10;99.90;;;;;;4922996;29;20048;-85
2022/01/31 07:25:41;;;;;;;30.55;4.80;;;5.10;99.90;;;;;;4938189;29;20291;-84
2022/01/31 07:28:16;;;;;;;21.52;3.85;;;5.20;99.90;;;;;;4938244;29;20047;-83
2022/01/31 07:30:48;;;;;;;25.30;3.93;;;5.20;99.90;;;;;;4922247;29;20043;-86
2022/01/31 07:33:16;;;;;;;31.95;4.75;;;5.20;99.90;;;;;;4938339;29;20051;-82
2022/01/31 07:35:43;;;;;;;167.57;9.27;;;5.20;99.90;;;;;;4938045;29;20050;-85
2022/01/31 07:38:10;;;;;;;28.90;4.00;;;5.20;99.90;;;;;;4955419;28;20074;-82
2022/01/31 07:40:37;;;;;;;28.65;4.65;;;5.20;99.90;;;;;;4937975;29;20495;-81
2022/01/31 07:43:03;;;;;;;33.63;5.80;;;5.30;99.90;;;;;;4937888;29;20042;-82
2022/01/31 07:45:29;;;;;;;30.70;4.40;;;5.20;99.90;;;;;;4955532;28;20094;-84
2022/01/31 07:47:54;;;;;;;40.30;6.22;;;5.20;99.90;;;;;;4937937;29;20047;-82
2022/01/31 07:50:20;;;;;;;39.60;5.18;;;5.30;99.90;;;;;;4921874;29;20046;-86
2022/01/31 07:52:46;;;;;;;112.05;9.20;;;5.30;99.90;;;;;;4955472;28;20074;-82
2022/01/31 07:55:12;;;;;;;30.88;4.57;;;5.40;99.90;;;;;;4937838;29;20471;-83
2022/01/31 07:57:40;;;;;;;622.30;22.65;;;5.40;99.90;;;;;;4937840;29;20043;-82
2022/01/31 08:00:07;;;;;;;44.97;5.35;;;5.40;99.90;;;;;;4955141;28;20047;-83
2022/01/31 08:02:33;;;;;;;40.17;5.82;;;5.50;99.90;;;;;;4937333;29;20122;-83
2022/01/31 08:04:58;;;;;;;38.50;6.78;;;5.60;99.90;;;;;;4921849;29;20137;-82
2022/01/31 08:07:24;;;;;;;35.38;6.32;;;5.60;99.90;;;;;;4937630;29;20058;-84
2022/01/31 08:09:50;;;;;;;39.92;5.45;;;5.60;99.90;;;;;;4937791;29;20539;-85
2022/01/31 08:12:16;;;;;;;34.38;5.57;;;5.70;99.90;;;;;;4937733;29;20495;-83
2022/01/31 08:14:43;;;;;;;31.55;4.90;;;5.70;99.90;;;;;;4938167;29;20089;-83
2022/01/31 08:17:08;;;;;;;31.15;4.72;;;5.70;99.90;;;;;;4938771;29;20089;-83
2022/01/31 08:19:34;;;;;;;16.83;3.72;;;5.70;99.90;;;;;;4956263;28;20039;-82
2022/01/31 08:22:00;;;;;;;25.45;4.00;;;5.80;99.90;;;;;;4923257;29;20035;-83
2022/01/31 08:24:27;;;;;;;16.00;2.90;;;5.70;99.90;;;;;;4938216;29;20050;-84
2022/01/31 08:26:53;;;;;;;32.58;4.00;;;5.70;99.90;;;;;;4938262;29;20087;-81
2022/01/31 08:29:29;;;;;;;21.38;3.20;;;5.70;99.90;;;;;;4955817;29;20510;-82
2022/01/31 08:31:57;;;;;;;23.58;2.88;;;5.70;99.90;;;;;;4956324;29;20047;-81
2022/01/31 08:35:47;;;;;;;22.30;2.95;;;5.70;99.90;;;;;;4956634;29;20468;-83
2022/01/31 08:37:12;;;;;;;27.10;4.35;;;5.60;99.90;;;;;;4939708;29;20043;-83
2022/01/31 08:39:38;;;;;;;25.77;3.65;;;5.60;99.90;;;;;;4955486;28;20043;-83
2022/01/31 08:42:04;;;;;;;30.33;5.40;;;5.70;99.90;;;;;;4955957;28;20118;-86
2022/01/31 08:44:30;;;;;;;23.02;3.42;;;5.70;99.90;;;;;;4955643;28;20456;-82
2022/01/31 08:46:56;;;;;;;26.60;4.07;;;5.70;99.90;;;;;;4938310;29;20062;-84
2022/01/31 08:49:21;;;;;;;12.10;2.13;;;5.70;99.90;;;;;;4955758;28;20098;-82
2022/01/31 08:51:47;;;;;;;18.33;3.10;;;5.70;99.90;;;;;;4955574;29;20043;-84
2022/01/31 08:54:13;;;;;;;21.63;2.58;;;5.70;99.90;;;;;;4938234;29;20047;-81
2022/01/31 08:56:44;;;;;;;20.10;2.15;;;5.70;99.90;;;;;;4937764;29;20488;-83
2022/01/31 08:59:18;;;;;;;20.55;2.67;;;5.70;99.90;;;;;;4922473;29;20093;-83
2022/01/31 09:02:03;;;;;;;19.77;1.92;;;5.70;99.90;;;;;;4937457;29;20043;-82
2022/01/31 09:04:34;;;;;;;20.67;2.35;;;5.70;99.90;;;;;;4955494;29;20102;-83
2022/01/31 09:07:01;;;;;;;18.08;2.55;;;5.70;99.90;;;;;;4937669;29;20047;-82
2022/01/31 09:09:27;;;;;;;14.35;2.17;;;5.70;99.90;;;;;;4921941;29;20055;-83
2022/01/31 09:11:52;;;;;;;16.17;2.75;;;5.90;99.90;;;;;;4937813;29;20101;-83
2022/01/31 09:14:18;;;;;;;19.55;3.13;;;6.00;99.90;;;;;;4922052;29;20043;-82
2022/01/31 09:16:44;;;;;;;14.23;2.28;;;6.00;99.90;;;;;;4921778;29;20047;-83
2022/01/31 09:19:10;;;;;;;13.23;2.13;;;6.00;99.90;;;;;;4937547;29;20035;-82
2022/01/31 09:21:36;;;;;;;21.23;2.10;;;6.00;99.90;;;;;;4937640;29;20043;-82
2022/01/31 09:24:02;;;;;;;14.05;2.08;;;6.00;99.90;;;;;;4937983;29;20047;-81
2022/01/31 09:26:28;;;;;;;14.30;1.95;;;6.00;99.90;;;;;;4937417;29;20044;-81
2022/01/31 09:28:55;;;;;;;20.38;1.98;;;6.00;99.90;;;;;;4937736;29;20348;-80
2022/01/31 09:31:22;;;;;;;17.08;2.03;;;6.00;99.90;;;;;;4937624;29;20054;-82
2022/01/31 09:33:49;;;;;;;8.55;1.80;;;6.00;99.90;;;;;;4937601;29;20231;-80
2022/01/31 09:36:15;;;;;;;21.58;2.20;;;6.10;99.90;;;;;;4937204;29;20057;-81
2022/01/31 09:38:42;;;;;;;16.30;2.08;;;6.20;99.90;;;;;;4957087;28;20122;-80
2022/01/31 09:41:15;;;;;;;14.60;1.70;;;6.20;99.90;;;;;;4958744;28;20047;-81
2022/01/31 09:44:09;;;;;;;9.55;1.95;;;6.20;99.90;;;;;;4940810;29;20047;-81
2022/01/31 09:48:56;;;;;;;12.48;1.60;;;6.20;99.90;;;;;;4940722;29;19918;-80
2022/01/31 09:51:24;;;;;;;11.10;1.20;;;6.30;99.90;;;;;;4941544;29;20043;-80
2022/01/31 09:53:58;;;;;;;6.82;1.13;;;6.30;99.90;;;;;;4958572;29;20050;-81
2022/01/31 09:56:29;;;;;;;3.80;1.13;;;6.40;99.90;;;;;;4940748;29;20051;-81
2022/01/31 09:58:55;;;;;;;14.02;1.48;;;6.50;99.90;;;;;;4958088;29;20093;-80
2022/01/31 10:01:27;;;;;;;7.85;1.83;;;6.60;99.90;;;;;;4957825;28;20039;-80
2022/01/31 10:03:57;;;;;;;7.82;1.63;;;6.80;99.90;;;;;;4940931;29;20050;-81
2022/01/31 10:06:34;;;;;;;7.78;1.38;;;6.90;99.90;;;;;;4941061;29;20047;-82
2022/01/31 10:09:06;;;;;;;23.65;3.83;;;6.90;99.90;;;;;;4958800;28;20039;-79
2022/01/31 10:11:41;;;;;;;13.32;1.58;;;7.00;99.90;;;;;;4941050;29;20046;-80
2022/01/31 10:17:08;;;;;;;13.43;1.33;;;7.10;99.90;;;;;;4957584;29;20048;-80
2022/01/31 10:19:43;;;;;;;10.57;1.70;;;7.20;99.90;;;;;;4940426;29;20035;-81
2022/01/31 10:22:12;;;;;;;18.15;3.72;;;7.20;99.90;;;;;;4940718;29;20369;-82
2022/01/31 10:24:40;;;;;;;15.38;1.95;;;7.30;99.90;;;;;;4940481;29;20047;-82
2022/01/31 10:27:18;;;;;;;14.75;2.50;;;7.30;99.90;;;;;;4940223;29;20403;-82
2022/01/31 10:29:46;;;;;;;16.45;2.50;;;7.30;99.90;;;;;;4940163;29;20476;-80
2022/01/31 10:32:16;;;;;;;16.08;2.70;;;7.40;99.90;;;;;;4939696;29;20135;-84
2022/01/31 10:34:47;;;;;;;17.58;2.28;;;7.30;99.90;;;;;;4940372;29;20125;-80
2022/01/31 10:37:15;;;;;;;19.27;3.15;;;7.30;99.90;;;;;;4957619;28;20044;-80
2022/01/31 10:56:23;;;;;;;10.88;2.00;;;7.10;99.90;;;;;;4939685;29;20089;-80
2022/01/31 10:59:10;;;;;;;8.85;1.40;;;7.20;99.90;;;;;;4956747;29;20127;-82
2022/01/31 11:01:38;;;;;;;8.88;2.15;;;7.10;99.90;;;;;;4956497;29;20039;-81
2022/01/31 11:04:06;;;;;;;8.38;1.15;;;7.10;99.90;;;;;;4923541;29;20043;-81
2022/01/31 11:06:33;;;;;;;11.02;1.40;;;7.10;99.90;;;;;;4939175;29;20050;-81
2022/01/31 11:09:07;;;;;;;8.20;1.73;;;7.10;99.90;;;;;;4944590;29;20546;-81
2022/01/31 11:11:34;;;;;;;6.30;1.10;;;7.00;99.90;;;;;;4947666;29;20039;-80
2022/01/31 11:14:01;;;;;;;7.95;0.70;;;6.90;99.90;;;;;;4956057;29;20038;-81
2022/01/31 11:16:28;;;;;;;5.20;0.90;;;6.90;99.90;;;;;;4958069;29;20055;-79
2022/01/31 11:18:57;;;;;;;8.30;0.88;;;6.80;99.90;;;;;;4958972;29;20043;-79
2022/01/31 11:21:28;;;;;;;4.85;0.98;;;6.90;99.90;;;;;;4959932;29;20102;-76
2022/01/31 11:24:00;;;;;;;5.30;0.60;;;6.80;99.90;;;;;;4971053;29;20067;-80
2022/01/31 11:26:34;;;;;;;3.88;0.70;;;6.70;99.90;;;;;;4947521;29;20066;-81
2022/01/31 11:29:01;;;;;;;4.85;0.93;;;6.70;99.90;;;;;;4944993;29;20078;-80
2022/01/31 11:31:27;;;;;;;5.40;0.90;;;6.70;99.90;;;;;;4958398;28;20051;-79
2022/01/31 11:33:56;;;;;;;3.22;0.70;;;6.70;99.90;;;;;;4939404;29;20047;-81
2022/01/31 11:36:22;;;;;;;7.95;1.00;;;6.80;99.90;;;;;;4939311;29;20047;-80
2022/01/31 11:38:48;;;;;;;10.52;1.42;;;6.80;99.90;;;;;;4939043;29;20043;-80
2022/01/31 11:41:16;;;;;;;10.80;1.95;;;6.80;99.90;;;;;;4938936;29;20039;-81
2022/01/31 11:43:46;;;;;;;19.00;2.70;;;6.90;99.90;;;;;;4938933;29;20050;-81
2022/01/31 11:46:12;;;;;;;19.52;3.20;;;6.80;99.90;;;;;;4938592;29;20047;-80
2022/01/31 11:48:38;;;;;;;17.42;3.10;;;6.80;99.90;;;;;;4939075;29;20050;-80
2022/01/31 11:51:05;;;;;;;22.35;3.58;;;6.90;99.90;;;;;;4938537;29;20047;-80
2022/01/31 11:53:31;;;;;;;24.92;5.18;;;6.90;99.90;;;;;;4956270;28;20047;-78
2022/01/31 11:56:22;;;;;;;17.40;3.15;;;7.10;99.90;;;;;;4922777;29;20047;-77
2022/01/31 11:58:52;;;;;;;25.80;4.10;;;7.20;99.90;;;;;;4938589;29;20043;-81
2022/01/31 12:01:19;;;;;;;24.25;4.40;;;7.30;99.90;;;;;;4937786;29;20075;-79
2022/01/31 12:03:54;;;;;;;20.83;3.05;;;7.40;99.90;;;;;;4938478;29;20044;-81
2022/01/31 12:06:21;;;;;;;22.13;3.55;;;7.40;99.90;;;;;;4938176;29;20043;-79
2022/01/31 12:08:49;;;;;;;16.00;3.50;;;7.40;99.90;;;;;;4938161;29;20047;-81
2022/01/31 12:11:22;;;;;;;20.95;3.00;;;7.50;99.90;;;;;;4938295;29;20047;-81
2022/01/31 12:13:53;;;;;;;20.77;3.65;;;7.50;99.90;;;;;;4938083;29;20082;-78
2022/01/31 12:16:40;;;;;;;19.55;3.38;;;7.60;99.90;;;;;;4955780;29;20047;-82
2022/01/31 12:22:12;;;;;;;19.42;4.07;;;8.10;99.90;;;;;;4938037;29;20047;-81
2022/01/31 12:24:38;;;;;;;19.38;3.65;;;8.40;99.90;;;;;;4938484;29;20047;-79
2022/01/31 12:27:13;;;;;;;20.50;2.63;;;8.50;99.90;;;;;;4922361;29;20039;-80
2022/01/31 12:29:59;;;;;;;12.77;2.38;;;8.60;99.90;;;;;;4937970;29;20051;-78
2022/01/31 12:32:38;;;;;;;9.20;2.63;;;8.50;99.90;;;;;;4937792;29;20101;-79
2022/01/31 12:35:12;;;;;;;19.90;3.78;;;8.40;99.90;;;;;;4938045;29;20047;-81
2022/01/31 12:37:40;;;;;;;9.00;1.63;;;8.30;99.90;;;;;;4938653;29;20085;-79
2022/01/31 12:40:17;;;;;;;17.88;2.05;;;8.20;99.90;;;;;;4937965;29;20043;-81
2022/01/31 12:45:31;;;;;;;15.40;2.00;;;8.10;99.90;;;;;;4937861;29;20053;-80
2022/01/31 12:48:20;;;;;;;13.38;2.08;;;8.00;99.90;;;;;;4937507;29;20089;-79
2022/01/31 12:51:01;;;;;;;14.35;2.17;;;8.00;99.90;;;;;;4922008;29;20122;-79
2022/01/31 12:53:38;;;;;;;12.02;2.33;;;8.00;99.90;;;;;;4937755;29;20487;-80
2022/01/31 12:56:10;;;;;;;16.20;2.72;;;8.00;99.90;;;;;;4921750;29;20043;-79
2022/01/31 12:58:46;;;;;;;13.73;2.10;;;8.00;99.90;;;;;;4937939;29;20043;-82
2022/01/31 13:01:23;;;;;;;12.23;1.98;;;8.00;99.90;;;;;;4955052;28;20039;-85
2022/01/31 13:03:53;;;;;;;10.93;1.92;;;8.10;99.90;;;;;;4954864;29;20475;-80
2022/01/31 13:06:37;;;;;;;13.48;2.03;;;8.10;99.90;;;;;;4937735;29;20369;-80
2022/01/31 13:09:05;;;;;;;24.23;2.42;;;8.10;99.90;;;;;;4955171;29;20500;-79
2022/01/31 13:11:32;;;;;;;17.23;2.78;;;8.00;99.90;;;;;;4937759;28;20098;-83
2022/01/31 13:14:15;;;;;;;18.10;2.58;;;8.00;99.90;;;;;;4958674;28;20043;-83
2022/01/31 13:19:32;;;;;;;20.88;3.72;;;7.70;99.90;;;;;;4958620;29;20162;-82
2022/01/31 13:21:59;;;;;;;22.50;3.80;;;7.50;99.90;;;;;;4958663;29;20078;-84
2022/01/31 13:24:37;;;;;;;24.10;3.78;;;7.40;99.90;;;;;;4941618;29;20047;-82
2022/01/31 13:27:04;;;;;;;34.22;4.80;;;7.30;99.90;;;;;;4958821;29;20406;-82
2022/01/31 13:29:43;;;;;;;25.35;3.83;;;7.40;99.90;;;;;;4941265;29;20496;-81
2022/01/31 13:32:29;;;;;;;26.08;4.55;;;7.40;99.90;;;;;;4941225;29;20050;-81
2022/01/31 13:35:09;;;;;;;30.50;4.80;;;7.50;99.90;;;;;;4958403;29;20035;-81
2022/01/31 13:37:58;;;;;;;39.35;6.03;;;7.50;99.90;;;;;;4942176;29;20074;-83
2022/01/31 13:40:47;;;;;;;38.92;5.53;;;7.50;99.90;;;;;;4958212;29;20483;-83
2022/01/31 13:43:17;;;;;;;29.90;3.95;;;7.50;99.90;;;;;;4941057;29;20043;-83
2022/01/31 13:48:38;;;;;;;27.98;4.70;;;7.40;99.90;;;;;;4940997;29;20474;-82
2022/01/31 13:51:02;;;;;;;26.00;3.42;;;7.40;99.90;;;;;;4957794;29;20047;-80
2022/01/31 13:53:31;;;;;;;24.77;4.05;;;7.40;99.90;;;;;;4940922;29;20438;-81
2022/01/31 13:55:59;;;;;;;27.15;3.90;;;7.40;99.90;;;;;;4940744;29;20399;-82
2022/01/31 13:58:31;;;;;;;28.05;4.18;;;7.40;99.90;;;;;;4940877;29;20193;-83
2022/01/31 14:00:58;;;;;;;34.97;4.78;;;7.40;99.90;;;;;;4940414;29;20035;-84
2022/01/31 14:03:25;;;;;;;28.33;4.18;;;7.40;99.90;;;;;;4940816;29;20101;-81
2022/01/31 14:06:00;;;;;;;23.58;3.50;;;7.40;99.90;;;;;;4957721;28;20460;-80
2022/01/31 14:08:28;;;;;;;20.08;3.30;;;7.40;99.90;;;;;;4924907;29;20042;-82
2022/01/31 14:11:24;;;;;;;24.73;4.18;;;7.40;99.90;;;;;;4958092;28;20047;-83
2022/01/31 14:13:53;;;;;;;31.73;3.80;;;7.40;99.90;;;;;;4957474;29;20518;-82
2022/01/31 14:16:29;;;;;;;25.45;4.00;;;7.40;99.90;;;;;;4956782;28;20039;-84
2022/01/31 14:19:01;;;;;;;28.38;4.07;;;7.40;99.90;;;;;;4940482;29;20054;-85
2022/01/31 14:21:27;;;;;;;28.17;3.53;;;7.40;99.90;;;;;;4940024;29;20043;-85
2022/01/31 14:23:56;;;;;;;22.40;3.28;;;7.40;99.90;;;;;;4956867;28;20391;-85
2022/01/31 14:26:55;;;;;;;30.77;4.88;;;7.30;99.90;;;;;;4940952;29;20178;-86
2022/01/31 14:29:20;;;;;;;21.33;3.67;;;7.30;99.90;;;;;;4940006;29;20051;-83
2022/01/31 14:31:50;;;;;;;22.92;3.60;;;7.30;99.90;;;;;;4957647;28;20050;-83
2022/01/31 14:34:18;;;;;;;18.83;2.80;;;7.30;99.90;;;;;;4940098;29;20439;-83
2022/01/31 14:36:48;;;;;;;12.98;2.10;;;7.40;99.90;;;;;;4939978;29;20055;-82
2022/01/31 14:47:52;;;;;;;9.65;1.30;;;7.50;99.90;;;;;;4957510;29;20069;-83
2022/01/31 14:50:28;;;;;;;6.78;1.48;;;7.40;99.90;;;;;;4957850;28;20047;-84
2022/01/31 14:52:54;;;;;;;6.25;1.23;;;7.20;99.90;;;;;;4957728;29;20122;-82
2022/01/31 14:55:22;;;;;;;7.10;1.33;;;7.00;99.90;;;;;;4957513;28;20078;-82
2022/01/31 14:57:50;;;;;;;7.03;1.70;;;6.90;99.90;;;;;;4940051;29;20118;-82
2022/01/31 15:00:19;;;;;;;12.18;1.45;;;6.80;99.90;;;;;;4939457;29;20082;-83
2022/01/31 15:02:45;;;;;;;10.15;1.40;;;6.80;99.90;;;;;;4939897;29;20046;-81
2022/01/31 15:05:13;;;;;;;7.13;1.20;;;6.70;99.90;;;;;;4939799;29;20035;-83
2022/01/31 15:07:41;;;;;;;6.47;1.20;;;6.70;99.90;;;;;;4957131;28;20043;-83
2022/01/31 15:10:08;;;;;;;7.40;1.45;;;6.70;99.90;;;;;;4939760;29;20527;-83
2022/01/31 15:12:34;;;;;;;8.20;1.70;;;6.70;99.90;;;;;;4957183;29;20057;-85
2022/01/31 15:15:00;;;;;;;10.25;1.92;;;6.70;99.90;;;;;;4957132;28;20550;-83
2022/01/31 15:17:26;;;;;;;11.38;1.83;;;6.70;99.90;;;;;;4956712;28;20047;-83
2022/01/31 15:19:52;;;;;;;10.32;1.30;;;6.70;99.90;;;;;;4923507;29;20070;-83
2022/01/31 15:22:18;;;;;;;6.97;1.45;;;6.70;99.90;;;;;;4939101;29;20050;-82
2022/01/31 15:24:44;;;;;;;6.20;1.08;;;6.70;99.90;;;;;;4939199;29;20047;-83
2022/01/31 15:27:10;;;;;;;8.55;1.20;;;6.70;99.90;;;;;;4956414;29;20038;-85
2022/01/31 15:29:37;;;;;;;13.13;1.67;;;6.70;99.90;;;;;;4956594;28;20046;-82
2022/01/31 15:32:04;;;;;;;11.45;2.40;;;6.70;99.90;;;;;;4939021;29;20058;-83
2022/01/31 15:34:31;;;;;;;9.93;1.55;;;6.70;99.90;;;;;;4938744;28;20146;-83
2022/01/31 15:36:57;;;;;;;14.80;2.80;;;6.60;99.90;;;;;;4922511;29;20448;-83
2022/01/31 15:39:22;;;;;;;9.57;2.00;;;6.70;99.90;;;;;;4938874;29;20047;-83
2022/01/31 15:41:50;;;;;;;13.00;2.55;;;6.60;99.90;;;;;;4938799;29;20513;-82
2022/01/31 15:44:25;;;;;;;9.20;1.33;;;6.60;99.90;;;;;;4956616;28;20467;-84
2022/01/31 15:46:51;;;;;;;11.82;1.73;;;6.60;99.90;;;;;;4940232;29;20047;-84
2022/01/31 15:49:17;;;;;;;9.57;1.38;;;6.60;99.90;;;;;;4952295;29;20043;-84
2022/01/31 15:51:43;;;;;;;5.25;1.65;;;6.60;99.90;;;;;;4958874;29;20107;-86
2022/01/31 15:54:09;;;;;;;6.20;0.80;;;6.50;99.90;;;;;;4953647;29;20047;-84
2022/01/31 15:56:35;;;;;;;10.65;2.13;;;6.40;99.90;;;;;;4966310;28;20103;-85
2022/01/31 15:59:00;;;;;;;4.93;1.13;;;6.30;99.90;;;;;;4944460;29;20043;-85
2022/01/31 16:01:28;;;;;;;7.78;1.35;;;6.20;99.90;;;;;;4939690;29;20097;-84
2022/01/31 16:03:54;;;;;;;6.22;1.13;;;6.20;99.90;;;;;;4939426;29;20051;-84
2022/01/31 16:06:20;;;;;;;7.25;1.50;;;6.20;99.90;;;;;;4956114;28;20042;-83
2022/01/31 16:08:46;;;;;;;6.15;1.15;;;6.10;99.90;;;;;;4955363;28;20174;-85
2022/01/31 16:11:11;;;;;;;8.55;1.30;;;6.10;99.90;;;;;;4937572;29;20465;-82
2022/01/31 16:13:43;;;;;;;11.70;2.28;;;6.10;99.90;;;;;;4937631;29;20581;-82
2022/01/31 16:16:10;;;;;;;8.63;1.60;;;6.10;99.90;;;;;;4937225;29;20057;-84
2022/01/31 16:18:37;;;;;;;5.18;1.52;;;6.10;99.90;;;;;;4937421;29;20039;-82
2022/01/31 16:21:02;;;;;;;6.95;1.75;;;6.00;99.90;;;;;;4954618;29;20047;-82
2022/01/31 16:23:28;;;;;;;13.80;2.42;;;6.00;99.90;;;;;;4937596;29;20110;-84
2022/01/31 16:25:56;;;;;;;11.95;2.20;;;6.00;99.90;;;;;;4937463;29;20062;-83
2022/01/31 16:28:22;;;;;;;11.57;2.70;;;6.00;99.90;;;;;;4954486;28;20488;-82
2022/01/31 16:30:49;;;;;;;12.43;2.50;;;6.00;99.90;;;;;;4937072;29;20055;-83
2022/01/31 16:33:16;;;;;;;7.20;2.53;;;5.90;99.90;;;;;;4937001;29;20051;-83
2022/01/31 16:35:42;;;;;;;12.45;2.50;;;5.90;99.90;;;;;;4937135;29;20039;-83
2022/01/31 16:38:11;;;;;;;7.25;2.53;;;5.90;99.90;;;;;;4954551;28;20440;-83
2022/01/31 16:40:41;;;;;;;5.00;1.42;;;5.90;99.90;;;;;;4938069;29;20051;-82
2022/01/31 16:43:07;;;;;;;5.90;1.30;;;5.90;99.90;;;;;;4955431;29;20079;-84
2022/01/31 16:45:34;;;;;;;3.38;0.90;;;5.80;99.90;;;;;;4937768;29;20078;-84
2022/01/31 16:48:01;;;;;;;8.10;1.20;;;5.70;99.90;;;;;;4937414;29;20118;-83
2022/01/31 16:50:27;;;;;;;5.15;1.42;;;5.70;99.90;;;;;;4938070;29;20035;-83
2022/01/31 16:52:58;;;;;;;6.65;1.15;;;5.60;99.90;;;;;;4937961;29;20046;-83
2022/01/31 16:55:26;;;;;;;5.07;0.90;;;5.60;99.90;;;;;;4955387;29;20440;-83
2022/01/31 16:57:55;;;;;;;5.43;1.00;;;5.60;99.90;;;;;;4937942;29;20491;-83
2022/01/31 17:00:21;;;;;;;4.35;0.77;;;5.60;99.90;;;;;;4954972;29;20093;-82
2022/01/31 17:02:47;;;;;;;5.05;1.00;;;5.60;99.90;;;;;;4937918;29;20448;-83
2022/01/31 17:05:13;;;;;;;7.47;1.02;;;5.50;99.90;;;;;;4937861;29;20122;-84
2022/01/31 17:07:39;;;;;;;6.70;1.50;;;5.60;99.90;;;;;;4955201;28;20039;-83
2022/01/31 17:10:08;;;;;;;2.63;0.90;;;5.50;99.90;;;;;;4937695;29;20051;-83
2022/01/31 17:12:33;;;;;;;5.07;0.98;;;5.50;99.90;;;;;;4937514;29;20047;-82
2022/01/31 17:15:01;;;;;;;8.63;1.30;;;5.50;99.90;;;;;;4921858;29;20047;-82
2022/01/31 17:17:27;;;;;;;6.63;1.10;;;5.50;99.90;;;;;;4937474;29;20126;-85
2022/01/31 17:19:52;;;;;;;7.13;1.38;;;5.50;99.90;;;;;;4938018;29;20127;-84
2022/01/31 17:22:19;;;;;;;10.07;2.15;;;5.50;99.90;;;;;;4937659;29;20082;-82
2022/01/31 17:24:47;;;;;;;6.05;1.40;;;5.50;99.90;;;;;;4937401;29;20046;-84
2022/01/31 17:27:12;;;;;;;9.75;1.75;;;5.40;99.90;;;;;;4937458;29;20055;-84
2022/01/31 17:29:38;;;;;;;5.20;1.00;;;5.40;99.90;;;;;;4937627;29;20070;-83
2022/01/31 17:32:04;;;;;;;6.90;1.05;;;5.40;99.90;;;;;;4937189;29;20121;-84
2022/01/31 17:34:29;;;;;;;7.05;1.58;;;5.30;99.90;;;;;;4937453;29;20047;-84
2022/01/31 17:36:56;;;;;;;10.10;1.52;;;5.30;99.90;;;;;;4937563;29;20047;-82
2022/01/31 17:39:22;;;;;;;10.32;1.70;;;5.40;99.90;;;;;;4937625;29;20051;-84